createdAt,value
2022-09-06T00:03:18.118Z,2.77
2022-09-06T00:08:21.630Z,2.60
2022-09-06T00:13:25.068Z,2.93
2022-09-06T00:18:29.843Z,3.50
2022-09-06T00:23:33.238Z,2.50
2022-09-06T00:28:36.677Z,2.30
2022-09-06T00:33:41.516Z,2.70
2022-09-06T00:38:45.008Z,2.80
2022-09-06T00:43:48.425Z,2.67
2022-09-06T00:48:55.442Z,3.10
2022-09-06T00:53:59.027Z,3.07
2022-09-06T00:59:02.875Z,2.97
2022-09-06T01:04:07.944Z,2.80
2022-09-06T01:09:14.100Z,3.17
2022-09-06T01:14:23.542Z,3.33
2022-09-06T01:19:40.673Z,3.37
2022-09-06T01:25:10.807Z,3.20
2022-09-06T01:30:17.761Z,3.37
2022-09-06T01:35:26.018Z,3.53
2022-09-06T01:40:29.615Z,3.57
2022-09-06T01:45:38.473Z,3.60
2022-09-06T01:50:50.702Z,3.80
2022-09-06T01:55:59.698Z,3.57
2022-09-06T02:01:07.255Z,3.30
2022-09-06T02:06:14.100Z,3.50
2022-09-06T02:11:17.605Z,3.83
2022-09-06T02:16:26.534Z,3.77
2022-09-06T02:21:32.790Z,4.03
2022-09-06T02:26:38.102Z,3.83
2022-09-06T02:31:44.519Z,3.37
2022-09-06T02:36:48.288Z,3.60
2022-09-06T02:41:51.807Z,3.70
2022-09-06T02:46:57.363Z,3.57
2022-09-06T02:52:00.810Z,4.17
2022-09-06T02:57:04.214Z,3.93
2022-09-06T03:02:09.044Z,3.97
2022-09-06T03:07:12.454Z,4.67
2022-09-06T03:12:15.824Z,3.90
2022-09-06T03:17:20.706Z,3.40
2022-09-06T03:22:24.212Z,4.47
2022-09-06T03:27:27.612Z,4.07
2022-09-06T03:32:32.289Z,5.10
2022-09-06T03:37:35.728Z,4.50
2022-09-06T03:42:39.142Z,4.83
2022-09-06T03:47:43.822Z,4.33
2022-09-06T03:52:47.325Z,4.70
2022-09-06T03:57:50.737Z,3.93
2022-09-06T04:02:58.653Z,4.17
2022-09-06T04:08:05.953Z,4.00
2022-09-06T04:13:09.332Z,4.77
2022-09-06T04:18:14.118Z,4.37
2022-09-06T04:23:17.719Z,4.23
2022-09-06T04:28:21.468Z,3.83
2022-09-06T04:33:26.848Z,3.73
2022-09-06T04:38:31.384Z,3.40
2022-09-06T04:43:34.793Z,3.57
2022-09-06T04:48:39.539Z,3.90
2022-09-06T04:53:42.909Z,3.80
2022-09-06T04:58:47.322Z,3.30
2022-09-06T05:03:56.184Z,2.57
2022-09-06T05:09:00.168Z,3.03
2022-09-06T05:14:03.588Z,2.83
2022-09-06T05:19:08.344Z,3.13
2022-09-06T05:24:12.670Z,3.53
2022-09-06T05:29:15.910Z,4.40
2022-09-06T05:34:21.069Z,4.43
2022-09-06T05:39:24.842Z,4.50
2022-09-06T05:44:28.303Z,4.57
2022-09-06T05:49:33.369Z,4.10
2022-09-06T05:54:36.763Z,3.40
2022-09-06T05:59:40.125Z,3.47
2022-09-06T06:04:44.880Z,2.80
2022-09-06T06:09:48.262Z,3.40
2022-09-06T06:14:51.665Z,3.93
2022-09-06T06:19:56.371Z,3.70
2022-09-06T06:24:59.750Z,3.77
2022-09-06T06:30:03.088Z,3.63
2022-09-06T06:35:09.684Z,3.50
2022-09-06T06:40:13.657Z,3.73
2022-09-06T06:45:18.795Z,3.60
2022-09-06T06:50:23.510Z,3.90
2022-09-06T06:55:26.813Z,3.67
2022-09-06T07:00:30.217Z,3.77
2022-09-06T07:10:58.331Z,3.13
2022-09-06T07:16:12.171Z,3.37
2022-09-06T07:26:40.919Z,3.93
2022-09-06T07:37:08.921Z,2.80
2022-09-06T07:42:12.344Z,2.90
2022-09-06T07:58:05.863Z,2.60
2022-09-06T08:03:09.288Z,3.00
2022-09-06T08:13:38.096Z,3.37
2022-09-06T08:18:41.527Z,3.10
2022-09-06T08:23:49.467Z,3.33
2022-09-06T08:28:54.515Z,3.27
2022-09-06T08:33:58.280Z,3.40
2022-09-06T08:39:04.601Z,3.40
2022-09-06T08:49:35.104Z,3.17
2022-09-06T08:54:42.395Z,3.13
2022-09-06T08:59:45.791Z,3.80
2022-09-06T09:04:51.829Z,3.23
2022-09-06T09:09:57.793Z,3.20
2022-09-06T09:15:06.764Z,2.73
2022-09-06T09:20:10.681Z,2.95
2022-09-06T09:25:19.375Z,3.42
2022-09-06T09:35:48.611Z,2.80
2022-09-06T09:40:54.307Z,3.03
2022-09-06T09:46:17.598Z,2.90
2022-09-06T09:51:27.104Z,2.75
2022-09-06T09:56:46.998Z,2.67
2022-09-06T10:01:50.928Z,2.80
2022-09-06T10:07:10.181Z,2.92
2022-09-06T10:12:20.086Z,2.80
2022-09-06T10:17:30.574Z,3.00
2022-09-06T10:22:36.239Z,3.17
2022-09-06T10:27:55.732Z,2.63
2022-09-06T10:33:06.756Z,3.35
2022-09-06T10:38:17.738Z,3.03
2022-09-06T10:43:22.864Z,3.22
2022-09-06T10:48:28.799Z,3.75
2022-09-06T10:53:36.063Z,3.05
2022-09-06T11:04:12.795Z,3.00
2022-09-06T11:09:20.213Z,3.17
2022-09-06T11:14:26.829Z,3.17
2022-09-06T11:19:32.938Z,3.40
2022-09-06T11:24:44.878Z,2.30
2022-09-06T11:29:56.389Z,2.50
2022-09-06T11:35:01.285Z,2.83
2022-09-06T11:45:42.081Z,2.90
2022-09-06T11:51:02.775Z,2.85
2022-09-06T11:56:14.039Z,2.78
2022-09-06T12:01:38.772Z,2.58
2022-09-06T12:06:42.921Z,2.75
2022-09-06T12:11:46.426Z,2.40
2022-09-06T12:17:09.099Z,2.58
2022-09-06T12:22:31.072Z,2.60
2022-09-06T12:27:37.948Z,2.63
2022-09-06T12:32:42.554Z,2.53
2022-09-06T12:37:51.022Z,2.90
2022-09-06T12:42:55.800Z,2.45
2022-09-06T12:48:06.328Z,2.55
2022-09-06T12:53:23.328Z,2.40
2022-09-06T12:58:31.621Z,2.58
2022-09-06T13:03:37.401Z,2.28
2022-09-06T13:08:45.761Z,2.58
2022-09-06T13:13:52.238Z,2.08
2022-09-06T13:18:55.902Z,2.30
2022-09-06T13:24:04.185Z,3.00
2022-09-06T13:29:12.348Z,2.58
2022-09-06T13:34:21.314Z,2.60
2022-09-06T13:39:32.728Z,2.78
2022-09-06T13:44:38.825Z,2.30
2022-09-06T13:49:42.187Z,2.10
2022-09-06T13:54:45.625Z,3.22
2022-09-06T13:59:50.390Z,2.85
2022-09-06T14:04:53.775Z,2.70
2022-09-06T14:09:57.185Z,2.42
2022-09-06T14:15:01.980Z,2.10
2022-09-06T14:20:05.578Z,2.85
2022-09-06T14:25:09.521Z,2.20
2022-09-06T14:30:14.621Z,2.33
2022-09-06T14:35:18.035Z,2.40
2022-09-06T14:40:21.400Z,2.53
2022-09-06T14:45:26.675Z,2.40
2022-09-06T14:50:31.381Z,2.50
2022-09-06T14:55:34.975Z,2.72
2022-09-06T15:00:39.449Z,2.58
2022-09-06T15:05:44.311Z,2.35
2022-09-06T15:10:54.256Z,2.63
2022-09-06T15:15:58.087Z,3.00
2022-09-06T15:21:10.899Z,2.60
2022-09-06T15:26:15.930Z,2.78
2022-09-06T15:31:19.736Z,2.50
2022-09-06T15:36:24.621Z,2.55
2022-09-06T15:41:29.158Z,2.83
2022-09-06T15:46:43.536Z,2.25
2022-09-06T15:51:48.590Z,2.30
2022-09-06T15:56:52.007Z,3.00
2022-09-06T16:01:55.441Z,2.45
2022-09-06T16:07:00.204Z,2.22
2022-09-06T16:12:07.186Z,2.38
2022-09-06T16:17:12.360Z,2.25
2022-09-06T16:22:17.160Z,2.10
2022-09-06T16:27:20.808Z,2.60
2022-09-06T16:32:24.216Z,2.33
2022-09-06T16:37:30.385Z,2.10
2022-09-06T16:42:33.806Z,2.53
2022-09-06T16:47:37.199Z,2.03
2022-09-06T16:52:42.141Z,2.33
2022-09-06T16:57:45.532Z,2.10
2022-09-06T17:02:48.997Z,2.20
2022-09-06T17:07:53.958Z,2.40
2022-09-06T17:12:57.622Z,2.63
2022-09-06T17:18:02.186Z,2.25
2022-09-06T17:23:07.085Z,2.70
2022-09-06T17:28:10.490Z,2.60
2022-09-06T17:33:17.023Z,2.70
2022-09-06T17:38:21.787Z,2.58
2022-09-06T17:43:25.251Z,2.50
2022-09-06T17:48:29.661Z,3.00
2022-09-06T17:53:35.134Z,2.13
2022-09-06T17:58:39.140Z,2.50
2022-09-06T18:03:43.155Z,2.17
2022-09-06T18:08:48.212Z,2.37
2022-09-06T18:13:55.750Z,4.73
2022-09-06T18:19:00.233Z,2.37
2022-09-06T18:24:05.766Z,2.60
2022-09-06T18:29:12.125Z,3.43
2022-09-06T18:34:16.705Z,3.13
2022-09-06T18:39:21.485Z,3.17
2022-09-06T18:44:25.626Z,4.17
2022-09-06T18:49:30.320Z,3.87
2022-09-06T18:54:36.061Z,3.87
2022-09-06T18:59:39.384Z,4.00
2022-09-06T19:04:42.836Z,3.77
2022-09-06T19:09:47.672Z,3.73
2022-09-06T19:14:51.077Z,4.00
2022-09-06T19:19:54.370Z,4.30
2022-09-06T19:24:59.325Z,4.27
2022-09-06T19:30:02.892Z,4.30
2022-09-06T19:35:06.772Z,3.60
2022-09-06T19:40:12.235Z,4.10
2022-09-06T19:45:15.686Z,4.33
2022-09-06T19:50:19.116Z,3.87
2022-09-06T19:55:23.892Z,4.10
2022-09-06T20:00:30.398Z,3.73
2022-09-06T20:05:36.887Z,4.33
2022-09-06T20:10:52.223Z,4.33
2022-09-06T20:15:55.882Z,4.20
2022-09-06T20:21:00.280Z,4.60
2022-09-06T20:26:06.635Z,4.50
2022-09-06T20:31:10.985Z,4.30
2022-09-06T20:36:14.823Z,4.83
2022-09-06T20:41:20.211Z,4.70
2022-09-06T20:46:24.716Z,3.90
2022-09-06T20:51:28.270Z,3.73
2022-09-06T20:56:34.883Z,3.80
2022-09-06T21:01:40.916Z,4.13
2022-09-06T21:06:45.940Z,4.03
2022-09-06T21:11:52.766Z,4.13
2022-09-06T21:16:56.299Z,4.20
2022-09-06T21:21:59.862Z,3.33
2022-09-06T21:27:04.936Z,3.23
2022-09-06T21:32:08.321Z,3.03
2022-09-06T21:37:11.710Z,2.60
2022-09-06T21:42:17.213Z,2.30
2022-09-06T21:47:20.661Z,2.90
2022-09-06T21:52:24.087Z,2.50
2022-09-06T21:57:28.846Z,3.37
2022-09-06T22:02:32.283Z,3.50
2022-09-06T22:07:37.054Z,3.97
2022-09-06T22:12:42.389Z,4.60
2022-09-06T22:17:45.807Z,4.73
2022-09-06T22:22:49.368Z,4.53
2022-09-06T22:27:54.293Z,4.10
2022-09-06T22:32:57.916Z,4.30
2022-09-06T22:38:01.418Z,3.73
2022-09-06T22:43:06.302Z,3.97
2022-09-06T22:48:09.957Z,4.20
2022-09-06T22:53:17.032Z,4.20
2022-09-06T22:58:21.882Z,3.87
2022-09-06T23:03:25.312Z,4.10
2022-09-06T23:08:28.847Z,3.33
2022-09-06T23:13:33.747Z,2.63
2022-09-06T23:18:37.141Z,1.90
2022-09-06T23:23:40.788Z,1.93
2022-09-06T23:28:45.745Z,2.60
2022-09-06T23:33:52.508Z,3.30
2022-09-06T23:38:56.149Z,3.27
2022-09-06T23:44:00.897Z,3.30
2022-09-06T23:49:04.383Z,1.97
2022-09-06T23:54:08.144Z,1.80
2022-09-06T23:59:12.927Z,2.13
